sensor_id;sensor_type;location;lat;lon;timestamp;P1;durP1;ratioP1;P2;durP2;ratioP2
72941;SDS011;61097;55.818;37.312;2023-04-24T00:00:00;10.82;;;5.95;;
72941;SDS011;61097;55.818;37.312;2023-04-24T00:02:30;13.25;;;6.07;;
72941;SDS011;61097;55.818;37.312;2023-04-24T00:04:56;13.80;;;5.53;;
72941;SDS011;61097;55.818;37.312;2023-04-24T00:07:22;15.02;;;5.40;;
72941;SDS011;61097;55.818;37.312;2023-04-24T00:09:47;13.30;;;6.03;;
72941;SDS011;61097;55.818;37.312;2023-04-24T00:12:13;14.15;;;5.95;;
72941;SDS011;61097;55.818;37.312;2023-04-24T00:14:38;13.93;;;5.85;;
72941;SDS011;61097;55.818;37.312;2023-04-24T00:17:04;12.80;;;6.78;;
72941;SDS011;61097;55.818;37.312;2023-04-24T00:19:30;13.68;;;5.03;;
72941;SDS011;61097;55.818;37.312;2023-04-24T00:21:55;13.32;;;5.68;;
72941;SDS011;61097;55.818;37.312;2023-04-24T00:24:21;13.18;;;5.95;;
72941;SDS011;61097;55.818;37.312;2023-04-24T00:26:46;10.68;;;5.47;;
72941;SDS011;61097;55.818;37.312;2023-04-24T00:29:12;12.60;;;6.03;;
72941;SDS011;61097;55.818;37.312;2023-04-24T00:31:38;12.20;;;5.63;;
72941;SDS011;61097;55.818;37.312;2023-04-24T00:34:03;13.48;;;6.50;;
72941;SDS011;61097;55.818;37.312;2023-04-24T00:36:30;13.35;;;5.82;;
72941;SDS011;61097;55.818;37.312;2023-04-24T00:38:56;15.13;;;6.30;;
72941;SDS011;61097;55.818;37.312;2023-04-24T00:41:22;14.98;;;5.85;;
72941;SDS011;61097;55.818;37.312;2023-04-24T00:43:49;15.70;;;5.97;;
72941;SDS011;61097;55.818;37.312;2023-04-24T00:46:16;11.95;;;5.75;;
72941;SDS011;61097;55.818;37.312;2023-04-24T00:48:41;16.10;;;5.80;;
72941;SDS011;61097;55.818;37.312;2023-04-24T00:51:08;18.30;;;6.28;;
72941;SDS011;61097;55.818;37.312;2023-04-24T00:53:34;14.63;;;7.03;;
72941;SDS011;61097;55.818;37.312;2023-04-24T00:56:00;13.50;;;5.75;;
72941;SDS011;61097;55.818;37.312;2023-04-24T00:58:26;13.65;;;5.68;;
72941;SDS011;61097;55.818;37.312;2023-04-24T01:00:52;13.65;;;5.72;;
72941;SDS011;61097;55.818;37.312;2023-04-24T01:03:22;11.48;;;4.97;;
72941;SDS011;61097;55.818;37.312;2023-04-24T01:05:52;12.98;;;6.35;;
72941;SDS011;61097;55.818;37.312;2023-04-24T01:08:19;14.57;;;6.45;;
72941;SDS011;61097;55.818;37.312;2023-04-24T01:10:49;12.15;;;5.85;;
72941;SDS011;61097;55.818;37.312;2023-04-24T01:13:18;13.23;;;6.30;;
72941;SDS011;61097;55.818;37.312;2023-04-24T01:15:44;13.27;;;6.28;;
72941;SDS011;61097;55.818;37.312;2023-04-24T01:18:10;13.23;;;6.28;;
72941;SDS011;61097;55.818;37.312;2023-04-24T01:20:36;15.55;;;6.55;;
72941;SDS011;61097;55.818;37.312;2023-04-24T01:23:05;17.35;;;8.05;;
72941;SDS011;61097;55.818;37.312;2023-04-24T01:25:31;15.35;;;6.15;;
72941;SDS011;61097;55.818;37.312;2023-04-24T01:27:57;19.00;;;6.65;;
72941;SDS011;61097;55.818;37.312;2023-04-24T01:30:23;17.73;;;6.85;;
72941;SDS011;61097;55.818;37.312;2023-04-24T01:32:49;20.05;;;7.53;;
72941;SDS011;61097;55.818;37.312;2023-04-24T01:35:15;14.52;;;6.75;;
72941;SDS011;61097;55.818;37.312;2023-04-24T01:37:40;16.98;;;6.32;;
72941;SDS011;61097;55.818;37.312;2023-04-24T01:40:06;18.63;;;7.30;;
72941;SDS011;61097;55.818;37.312;2023-04-24T01:42:32;16.70;;;7.40;;
72941;SDS011;61097;55.818;37.312;2023-04-24T01:45:01;16.25;;;7.45;;
72941;SDS011;61097;55.818;37.312;2023-04-24T01:47:30;21.00;;;6.93;;
72941;SDS011;61097;55.818;37.312;2023-04-24T01:49:56;13.52;;;6.75;;
72941;SDS011;61097;55.818;37.312;2023-04-24T01:52:22;16.33;;;6.60;;
72941;SDS011;61097;55.818;37.312;2023-04-24T01:54:47;15.13;;;7.13;;
72941;SDS011;61097;55.818;37.312;2023-04-24T01:57:13;17.02;;;7.78;;
72941;SDS011;61097;55.818;37.312;2023-04-24T01:59:40;17.45;;;6.45;;
72941;SDS011;61097;55.818;37.312;2023-04-24T02:02:07;13.18;;;6.25;;
72941;SDS011;61097;55.818;37.312;2023-04-24T02:04:34;18.95;;;6.78;;
72941;SDS011;61097;55.818;37.312;2023-04-24T02:07:00;14.82;;;6.65;;
72941;SDS011;61097;55.818;37.312;2023-04-24T02:09:25;16.48;;;6.85;;
72941;SDS011;61097;55.818;37.312;2023-04-24T02:11:51;15.02;;;7.65;;
72941;SDS011;61097;55.818;37.312;2023-04-24T02:14:17;16.70;;;7.30;;
72941;SDS011;61097;55.818;37.312;2023-04-24T02:16:42;17.77;;;7.63;;
72941;SDS011;61097;55.818;37.312;2023-04-24T02:19:09;16.63;;;7.82;;
72941;SDS011;61097;55.818;37.312;2023-04-24T02:21:35;17.83;;;9.52;;
72941;SDS011;61097;55.818;37.312;2023-04-24T02:24:00;24.13;;;7.78;;
72941;SDS011;61097;55.818;37.312;2023-04-24T02:26:26;22.88;;;7.20;;
72941;SDS011;61097;55.818;37.312;2023-04-24T02:28:52;19.48;;;8.75;;
72941;SDS011;61097;55.818;37.312;2023-04-24T02:31:19;21.23;;;8.38;;
72941;SDS011;61097;55.818;37.312;2023-04-24T02:33:47;16.80;;;6.70;;
72941;SDS011;61097;55.818;37.312;2023-04-24T02:36:12;21.35;;;7.82;;
72941;SDS011;61097;55.818;37.312;2023-04-24T02:38:39;18.58;;;7.82;;
72941;SDS011;61097;55.818;37.312;2023-04-24T02:41:04;13.95;;;6.47;;
72941;SDS011;61097;55.818;37.312;2023-04-24T02:43:31;16.38;;;7.15;;
72941;SDS011;61097;55.818;37.312;2023-04-24T02:45:58;19.45;;;7.45;;
72941;SDS011;61097;55.818;37.312;2023-04-24T02:48:24;17.60;;;7.07;;
72941;SDS011;61097;55.818;37.312;2023-04-24T02:50:50;19.77;;;7.13;;
72941;SDS011;61097;55.818;37.312;2023-04-24T02:53:16;16.48;;;7.18;;
72941;SDS011;61097;55.818;37.312;2023-04-24T02:55:42;17.55;;;8.05;;
72941;SDS011;61097;55.818;37.312;2023-04-24T02:58:08;17.35;;;7.32;;
72941;SDS011;61097;55.818;37.312;2023-04-24T03:00:33;17.08;;;7.00;;
72941;SDS011;61097;55.818;37.312;2023-04-24T03:02:59;16.33;;;7.60;;
72941;SDS011;61097;55.818;37.312;2023-04-24T03:05:25;15.32;;;8.35;;
72941;SDS011;61097;55.818;37.312;2023-04-24T03:07:52;17.50;;;8.20;;
72941;SDS011;61097;55.818;37.312;2023-04-24T03:10:22;19.02;;;8.20;;
72941;SDS011;61097;55.818;37.312;2023-04-24T03:12:48;17.77;;;8.48;;
72941;SDS011;61097;55.818;37.312;2023-04-24T03:15:14;14.20;;;8.85;;
72941;SDS011;61097;55.818;37.312;2023-04-24T03:17:40;20.33;;;8.57;;
72941;SDS011;61097;55.818;37.312;2023-04-24T03:20:05;15.57;;;7.88;;
72941;SDS011;61097;55.818;37.312;2023-04-24T03:22:34;14.98;;;7.97;;
72941;SDS011;61097;55.818;37.312;2023-04-24T03:25:00;18.27;;;8.65;;
72941;SDS011;61097;55.818;37.312;2023-04-24T03:27:26;19.52;;;7.60;;
72941;SDS011;61097;55.818;37.312;2023-04-24T03:29:59;17.08;;;8.57;;
72941;SDS011;61097;55.818;37.312;2023-04-24T03:32:39;19.50;;;8.32;;
72941;SDS011;61097;55.818;37.312;2023-04-24T03:35:06;16.20;;;9.65;;
72941;SDS011;61097;55.818;37.312;2023-04-24T03:37:33;17.20;;;8.52;;
72941;SDS011;61097;55.818;37.312;2023-04-24T03:40:14;18.85;;;8.50;;
72941;SDS011;61097;55.818;37.312;2023-04-24T03:42:40;17.73;;;9.48;;
72941;SDS011;61097;55.818;37.312;2023-04-24T03:45:05;22.17;;;8.32;;
72941;SDS011;61097;55.818;37.312;2023-04-24T03:47:34;14.90;;;8.80;;
72941;SDS011;61097;55.818;37.312;2023-04-24T03:50:02;19.42;;;9.00;;
72941;SDS011;61097;55.818;37.312;2023-04-24T03:52:29;16.90;;;8.20;;
72941;SDS011;61097;55.818;37.312;2023-04-24T03:54:57;15.50;;;8.65;;
72941;SDS011;61097;55.818;37.312;2023-04-24T03:57:27;20.83;;;8.82;;
72941;SDS011;61097;55.818;37.312;2023-04-24T04:00:05;17.67;;;9.73;;
72941;SDS011;61097;55.818;37.312;2023-04-24T04:02:40;17.17;;;8.95;;
72941;SDS011;61097;55.818;37.312;2023-04-24T04:05:07;15.02;;;8.60;;
72941;SDS011;61097;55.818;37.312;2023-04-24T04:07:33;16.00;;;8.60;;
72941;SDS011;61097;55.818;37.312;2023-04-24T04:09:59;20.38;;;10.18;;
72941;SDS011;61097;55.818;37.312;2023-04-24T04:12:24;14.88;;;9.15;;
72941;SDS011;61097;55.818;37.312;2023-04-24T04:14:50;16.92;;;10.43;;
72941;SDS011;61097;55.818;37.312;2023-04-24T04:17:15;18.08;;;9.73;;
72941;SDS011;61097;55.818;37.312;2023-04-24T04:19:41;17.17;;;9.52;;
72941;SDS011;61097;55.818;37.312;2023-04-24T04:22:07;16.45;;;10.20;;
72941;SDS011;61097;55.818;37.312;2023-04-24T04:24:41;20.50;;;10.00;;
72941;SDS011;61097;55.818;37.312;2023-04-24T04:27:07;14.40;;;9.40;;
72941;SDS011;61097;55.818;37.312;2023-04-24T04:29:42;17.98;;;9.77;;
72941;SDS011;61097;55.818;37.312;2023-04-24T04:32:09;15.27;;;9.43;;
72941;SDS011;61097;55.818;37.312;2023-04-24T04:34:35;17.38;;;9.90;;
72941;SDS011;61097;55.818;37.312;2023-04-24T04:37:03;18.58;;;9.98;;
72941;SDS011;61097;55.818;37.312;2023-04-24T04:39:39;19.40;;;10.00;;
72941;SDS011;61097;55.818;37.312;2023-04-24T04:42:08;22.48;;;10.18;;
72941;SDS011;61097;55.818;37.312;2023-04-24T04:44:38;21.45;;;9.77;;
72941;SDS011;61097;55.818;37.312;2023-04-24T04:47:06;20.02;;;10.13;;
72941;SDS011;61097;55.818;37.312;2023-04-24T04:49:34;17.92;;;10.18;;
72941;SDS011;61097;55.818;37.312;2023-04-24T04:52:00;19.25;;;10.23;;
72941;SDS011;61097;55.818;37.312;2023-04-24T04:54:27;17.58;;;10.77;;
72941;SDS011;61097;55.818;37.312;2023-04-24T04:56:53;16.88;;;9.70;;
72941;SDS011;61097;55.818;37.312;2023-04-24T04:59:19;19.88;;;9.70;;
72941;SDS011;61097;55.818;37.312;2023-04-24T05:01:46;16.10;;;10.10;;
72941;SDS011;61097;55.818;37.312;2023-04-24T05:04:14;15.38;;;10.02;;
72941;SDS011;61097;55.818;37.312;2023-04-24T05:06:40;18.23;;;9.88;;
72941;SDS011;61097;55.818;37.312;2023-04-24T05:09:05;17.45;;;9.50;;
72941;SDS011;61097;55.818;37.312;2023-04-24T05:11:42;17.48;;;9.68;;
72941;SDS011;61097;55.818;37.312;2023-04-24T05:14:08;16.75;;;10.30;;
72941;SDS011;61097;55.818;37.312;2023-04-24T05:16:36;22.48;;;10.82;;
72941;SDS011;61097;55.818;37.312;2023-04-24T05:19:03;21.45;;;10.52;;
72941;SDS011;61097;55.818;37.312;2023-04-24T05:21:34;18.33;;;10.48;;
72941;SDS011;61097;55.818;37.312;2023-04-24T05:24:00;18.50;;;9.82;;
72941;SDS011;61097;55.818;37.312;2023-04-24T05:26:45;14.93;;;9.45;;
72941;SDS011;61097;55.818;37.312;2023-04-24T05:29:14;19.60;;;9.57;;
72941;SDS011;61097;55.818;37.312;2023-04-24T05:31:41;15.73;;;9.57;;
72941;SDS011;61097;55.818;37.312;2023-04-24T05:34:07;17.60;;;8.63;;
72941;SDS011;61097;55.818;37.312;2023-04-24T05:36:33;19.23;;;9.23;;
72941;SDS011;61097;55.818;37.312;2023-04-24T05:38:59;15.40;;;9.50;;
72941;SDS011;61097;55.818;37.312;2023-04-24T05:41:24;18.30;;;10.10;;
72941;SDS011;61097;55.818;37.312;2023-04-24T05:43:50;15.38;;;9.82;;
72941;SDS011;61097;55.818;37.312;2023-04-24T05:46:16;16.73;;;9.27;;
72941;SDS011;61097;55.818;37.312;2023-04-24T05:48:41;14.80;;;9.25;;
72941;SDS011;61097;55.818;37.312;2023-04-24T05:51:07;13.55;;;9.02;;
72941;SDS011;61097;55.818;37.312;2023-04-24T05:53:34;19.95;;;8.73;;
72941;SDS011;61097;55.818;37.312;2023-04-24T05:55:59;14.85;;;9.05;;
72941;SDS011;61097;55.818;37.312;2023-04-24T05:58:25;19.65;;;11.68;;
72941;SDS011;61097;55.818;37.312;2023-04-24T06:00:51;18.05;;;10.45;;
72941;SDS011;61097;55.818;37.312;2023-04-24T06:03:17;20.45;;;9.65;;
72941;SDS011;61097;55.818;37.312;2023-04-24T06:05:42;15.68;;;8.98;;
72941;SDS011;61097;55.818;37.312;2023-04-24T06:08:08;11.70;;;7.40;;
72941;SDS011;61097;55.818;37.312;2023-04-24T06:10:37;15.15;;;8.05;;
72941;SDS011;61097;55.818;37.312;2023-04-24T06:13:05;13.50;;;7.50;;
72941;SDS011;61097;55.818;37.312;2023-04-24T06:15:32;13.05;;;7.55;;
72941;SDS011;61097;55.818;37.312;2023-04-24T06:18:11;10.98;;;7.38;;
72941;SDS011;61097;55.818;37.312;2023-04-24T06:20:38;11.18;;;7.15;;
72941;SDS011;61097;55.818;37.312;2023-04-24T06:23:04;12.98;;;6.70;;
72941;SDS011;61097;55.818;37.312;2023-04-24T06:25:32;10.30;;;7.07;;
72941;SDS011;61097;55.818;37.312;2023-04-24T06:27:57;14.35;;;6.43;;
72941;SDS011;61097;55.818;37.312;2023-04-24T06:30:23;9.45;;;6.35;;
72941;SDS011;61097;55.818;37.312;2023-04-24T06:32:50;10.10;;;6.38;;
72941;SDS011;61097;55.818;37.312;2023-04-24T06:35:16;10.90;;;6.88;;
72941;SDS011;61097;55.818;37.312;2023-04-24T06:37:42;13.13;;;6.60;;
72941;SDS011;61097;55.818;37.312;2023-04-24T06:40:08;12.02;;;6.68;;
72941;SDS011;61097;55.818;37.312;2023-04-24T06:42:35;12.27;;;6.07;;
72941;SDS011;61097;55.818;37.312;2023-04-24T06:45:02;10.85;;;7.05;;
72941;SDS011;61097;55.818;37.312;2023-04-24T06:47:29;13.70;;;6.65;;
72941;SDS011;61097;55.818;37.312;2023-04-24T06:49:58;13.32;;;6.57;;
72941;SDS011;61097;55.818;37.312;2023-04-24T06:52:24;9.90;;;7.18;;
72941;SDS011;61097;55.818;37.312;2023-04-24T06:54:49;14.23;;;6.97;;
72941;SDS011;61097;55.818;37.312;2023-04-24T06:57:15;11.57;;;5.93;;
72941;SDS011;61097;55.818;37.312;2023-04-24T06:59:43;12.73;;;6.80;;
72941;SDS011;61097;55.818;37.312;2023-04-24T07:02:09;12.95;;;6.38;;
72941;SDS011;61097;55.818;37.312;2023-04-24T07:04:34;13.25;;;6.50;;
72941;SDS011;61097;55.818;37.312;2023-04-24T07:07:00;12.05;;;6.25;;
72941;SDS011;61097;55.818;37.312;2023-04-24T07:09:28;10.43;;;5.45;;
72941;SDS011;61097;55.818;37.312;2023-04-24T07:11:54;10.75;;;5.90;;
72941;SDS011;61097;55.818;37.312;2023-04-24T07:14:21;12.40;;;5.68;;
72941;SDS011;61097;55.818;37.312;2023-04-24T07:16:48;10.63;;;5.70;;
72941;SDS011;61097;55.818;37.312;2023-04-24T07:19:13;11.25;;;5.40;;
72941;SDS011;61097;55.818;37.312;2023-04-24T07:21:39;10.20;;;6.05;;
72941;SDS011;61097;55.818;37.312;2023-04-24T07:24:06;9.82;;;5.15;;
72941;SDS011;61097;55.818;37.312;2023-04-24T07:26:36;9.40;;;5.95;;
72941;SDS011;61097;55.818;37.312;2023-04-24T07:29:02;9.35;;;5.45;;
72941;SDS011;61097;55.818;37.312;2023-04-24T07:31:27;9.10;;;6.05;;
72941;SDS011;61097;55.818;37.312;2023-04-24T07:33:53;8.80;;;5.65;;
72941;SDS011;61097;55.818;37.312;2023-04-24T07:36:19;10.35;;;5.72;;
72941;SDS011;61097;55.818;37.312;2023-04-24T07:38:45;11.30;;;5.60;;
72941;SDS011;61097;55.818;37.312;2023-04-24T07:41:12;8.63;;;5.72;;
72941;SDS011;61097;55.818;37.312;2023-04-24T07:43:38;7.25;;;5.10;;
72941;SDS011;61097;55.818;37.312;2023-04-24T07:46:03;9.70;;;4.45;;
72941;SDS011;61097;55.818;37.312;2023-04-24T07:48:29;7.88;;;4.82;;
72941;SDS011;61097;55.818;37.312;2023-04-24T07:50:58;9.70;;;5.10;;
72941;SDS011;61097;55.818;37.312;2023-04-24T07:55:49;11.55;;;5.15;;
72941;SDS011;61097;55.818;37.312;2023-04-24T07:58:15;15.95;;;5.60;;
72941;SDS011;61097;55.818;37.312;2023-04-24T08:00:40;9.13;;;5.40;;
72941;SDS011;61097;55.818;37.312;2023-04-24T08:03:09;9.00;;;4.97;;
72941;SDS011;61097;55.818;37.312;2023-04-24T08:05:42;7.72;;;4.72;;
72941;SDS011;61097;55.818;37.312;2023-04-24T08:08:08;7.03;;;4.35;;
72941;SDS011;61097;55.818;37.312;2023-04-24T08:10:34;12.15;;;5.43;;
72941;SDS011;61097;55.818;37.312;2023-04-24T08:12:59;11.27;;;5.00;;
72941;SDS011;61097;55.818;37.312;2023-04-24T08:15:26;7.55;;;3.85;;
72941;SDS011;61097;55.818;37.312;2023-04-24T08:17:52;7.70;;;4.25;;
72941;SDS011;61097;55.818;37.312;2023-04-24T08:20:18;8.13;;;4.18;;
72941;SDS011;61097;55.818;37.312;2023-04-24T08:22:43;7.80;;;4.07;;
72941;SDS011;61097;55.818;37.312;2023-04-24T08:25:12;8.23;;;4.40;;
72941;SDS011;61097;55.818;37.312;2023-04-24T08:27:38;8.45;;;4.18;;
72941;SDS011;61097;55.818;37.312;2023-04-24T08:30:04;10.77;;;4.63;;
72941;SDS011;61097;55.818;37.312;2023-04-24T08:32:30;8.02;;;4.07;;
72941;SDS011;61097;55.818;37.312;2023-04-24T08:34:56;6.90;;;4.07;;
72941;SDS011;61097;55.818;37.312;2023-04-24T08:37:23;7.40;;;4.22;;
72941;SDS011;61097;55.818;37.312;2023-04-24T08:39:49;6.78;;;3.80;;
72941;SDS011;61097;55.818;37.312;2023-04-24T08:42:15;6.95;;;4.20;;
72941;SDS011;61097;55.818;37.312;2023-04-24T08:44:43;9.23;;;4.00;;
72941;SDS011;61097;55.818;37.312;2023-04-24T08:47:10;8.65;;;4.20;;
72941;SDS011;61097;55.818;37.312;2023-04-24T08:49:37;7.07;;;4.22;;
72941;SDS011;61097;55.818;37.312;2023-04-24T08:52:04;8.10;;;4.45;;
72941;SDS011;61097;55.818;37.312;2023-04-24T08:54:30;8.23;;;4.18;;
72941;SDS011;61097;55.818;37.312;2023-04-24T08:57:00;11.93;;;4.88;;
72941;SDS011;61097;55.818;37.312;2023-04-24T08:59:29;9.73;;;4.63;;
72941;SDS011;61097;55.818;37.312;2023-04-24T09:01:59;7.57;;;4.53;;
72941;SDS011;61097;55.818;37.312;2023-04-24T09:04:25;9.65;;;4.72;;
72941;SDS011;61097;55.818;37.312;2023-04-24T09:06:51;9.18;;;5.03;;
72941;SDS011;61097;55.818;37.312;2023-04-24T09:09:20;8.82;;;4.78;;
72941;SDS011;61097;55.818;37.312;2023-04-24T09:11:48;7.05;;;4.47;;
72941;SDS011;61097;55.818;37.312;2023-04-24T09:14:24;7.75;;;4.25;;
72941;SDS011;61097;55.818;37.312;2023-04-24T09:16:51;10.18;;;4.63;;
72941;SDS011;61097;55.818;37.312;2023-04-24T09:19:16;9.50;;;4.53;;
72941;SDS011;61097;55.818;37.312;2023-04-24T09:21:45;8.20;;;4.78;;
72941;SDS011;61097;55.818;37.312;2023-04-24T09:24:15;10.38;;;4.65;;
72941;SDS011;61097;55.818;37.312;2023-04-24T09:26:43;7.88;;;4.45;;
72941;SDS011;61097;55.818;37.312;2023-04-24T09:29:13;8.25;;;5.00;;
72941;SDS011;61097;55.818;37.312;2023-04-24T09:31:43;7.70;;;4.78;;
72941;SDS011;61097;55.818;37.312;2023-04-24T09:34:10;8.00;;;4.72;;
72941;SDS011;61097;55.818;37.312;2023-04-24T09:36:40;7.25;;;4.20;;
72941;SDS011;61097;55.818;37.312;2023-04-24T09:39:11;6.95;;;4.43;;
72941;SDS011;61097;55.818;37.312;2023-04-24T09:41:45;8.73;;;3.92;;
72941;SDS011;61097;55.818;37.312;2023-04-24T09:44:19;8.55;;;4.30;;
72941;SDS011;61097;55.818;37.312;2023-04-24T09:46:51;8.80;;;3.92;;
72941;SDS011;61097;55.818;37.312;2023-04-24T09:49:22;8.13;;;4.20;;
72941;SDS011;61097;55.818;37.312;2023-04-24T09:54:34;10.02;;;4.57;;
72941;SDS011;61097;55.818;37.312;2023-04-24T09:57:01;6.80;;;4.05;;
72941;SDS011;61097;55.818;37.312;2023-04-24T09:59:27;10.38;;;4.43;;
72941;SDS011;61097;55.818;37.312;2023-04-24T10:01:53;11.57;;;5.13;;
72941;SDS011;61097;55.818;37.312;2023-04-24T10:04:19;9.10;;;4.82;;
72941;SDS011;61097;55.818;37.312;2023-04-24T10:06:46;8.65;;;4.65;;
72941;SDS011;61097;55.818;37.312;2023-04-24T10:09:14;8.82;;;4.57;;
72941;SDS011;61097;55.818;37.312;2023-04-24T10:11:41;6.75;;;3.92;;
72941;SDS011;61097;55.818;37.312;2023-04-24T10:14:12;7.85;;;4.40;;
72941;SDS011;61097;55.818;37.312;2023-04-24T10:16:39;8.23;;;4.35;;
72941;SDS011;61097;55.818;37.312;2023-04-24T10:19:06;8.38;;;4.45;;
72941;SDS011;61097;55.818;37.312;2023-04-24T10:21:32;7.18;;;4.50;;
72941;SDS011;61097;55.818;37.312;2023-04-24T10:23:58;9.15;;;4.70;;
72941;SDS011;61097;55.818;37.312;2023-04-24T10:28:52;7.78;;;4.43;;
72941;SDS011;61097;55.818;37.312;2023-04-24T10:31:19;8.20;;;3.78;;
72941;SDS011;61097;55.818;37.312;2023-04-24T10:33:46;7.43;;;3.92;;
72941;SDS011;61097;55.818;37.312;2023-04-24T10:36:12;9.90;;;4.68;;
72941;SDS011;61097;55.818;37.312;2023-04-24T10:38:40;8.32;;;4.82;;
72941;SDS011;61097;55.818;37.312;2023-04-24T10:41:10;7.82;;;4.47;;
72941;SDS011;61097;55.818;37.312;2023-04-24T10:43:41;7.75;;;4.07;;
72941;SDS011;61097;55.818;37.312;2023-04-24T10:46:08;6.50;;;4.00;;
72941;SDS011;61097;55.818;37.312;2023-04-24T10:48:35;10.00;;;4.57;;
72941;SDS011;61097;55.818;37.312;2023-04-24T10:51:10;6.60;;;4.13;;
72941;SDS011;61097;55.818;37.312;2023-04-24T10:53:36;9.98;;;4.72;;
72941;SDS011;61097;55.818;37.312;2023-04-24T10:56:06;10.40;;;4.78;;
72941;SDS011;61097;55.818;37.312;2023-04-24T10:58:41;10.35;;;4.85;;
72941;SDS011;61097;55.818;37.312;2023-04-24T11:03:59;9.52;;;4.05;;
72941;SDS011;61097;55.818;37.312;2023-04-24T11:09:06;8.95;;;4.70;;
72941;SDS011;61097;55.818;37.312;2023-04-24T11:11:34;9.00;;;4.30;;
72941;SDS011;61097;55.818;37.312;2023-04-24T11:14:02;10.20;;;4.47;;
72941;SDS011;61097;55.818;37.312;2023-04-24T11:24:25;8.35;;;4.13;;
72941;SDS011;61097;55.818;37.312;2023-04-24T11:29:39;9.00;;;4.40;;
72941;SDS011;61097;55.818;37.312;2023-04-24T11:32:24;9.13;;;3.80;;
72941;SDS011;61097;55.818;37.312;2023-04-24T11:34:51;8.00;;;3.92;;
72941;SDS011;61097;55.818;37.312;2023-04-24T11:37:18;8.50;;;4.05;;
72941;SDS011;61097;55.818;37.312;2023-04-24T11:39:44;7.28;;;4.10;;
72941;SDS011;61097;55.818;37.312;2023-04-24T11:42:10;7.35;;;3.90;;
72941;SDS011;61097;55.818;37.312;2023-04-24T11:44:36;8.35;;;3.72;;
72941;SDS011;61097;55.818;37.312;2023-04-24T11:47:05;8.68;;;3.90;;
72941;SDS011;61097;55.818;37.312;2023-04-24T11:49:32;7.88;;;3.42;;
72941;SDS011;61097;55.818;37.312;2023-04-24T11:51:59;7.38;;;3.95;;
72941;SDS011;61097;55.818;37.312;2023-04-24T11:54:26;8.43;;;3.88;;
72941;SDS011;61097;55.818;37.312;2023-04-24T11:56:51;6.07;;;3.67;;
72941;SDS011;61097;55.818;37.312;2023-04-24T11:59:17;7.15;;;3.60;;
72941;SDS011;61097;55.818;37.312;2023-04-24T12:01:44;7.63;;;3.35;;
72941;SDS011;61097;55.818;37.312;2023-04-24T12:04:10;6.90;;;3.40;;
72941;SDS011;61097;55.818;37.312;2023-04-24T12:06:36;7.43;;;3.80;;
72941;SDS011;61097;55.818;37.312;2023-04-24T12:09:02;6.40;;;3.60;;
72941;SDS011;61097;55.818;37.312;2023-04-24T12:11:28;6.97;;;3.95;;
72941;SDS011;61097;55.818;37.312;2023-04-24T12:13:53;7.30;;;3.40;;
72941;SDS011;61097;55.818;37.312;2023-04-24T12:16:19;9.07;;;3.70;;
72941;SDS011;61097;55.818;37.312;2023-04-24T12:18:45;8.23;;;3.85;;
72941;SDS011;61097;55.818;37.312;2023-04-24T12:21:17;7.97;;;3.35;;
72941;SDS011;61097;55.818;37.312;2023-04-24T12:23:44;8.50;;;3.80;;
72941;SDS011;61097;55.818;37.312;2023-04-24T12:26:19;7.13;;;3.55;;
72941;SDS011;61097;55.818;37.312;2023-04-24T12:28:47;8.05;;;3.83;;
72941;SDS011;61097;55.818;37.312;2023-04-24T12:31:16;10.07;;;3.90;;
72941;SDS011;61097;55.818;37.312;2023-04-24T12:33:42;8.02;;;3.78;;
72941;SDS011;61097;55.818;37.312;2023-04-24T12:36:12;6.88;;;3.65;;
72941;SDS011;61097;55.818;37.312;2023-04-24T12:38:37;7.50;;;3.30;;
72941;SDS011;61097;55.818;37.312;2023-04-24T12:41:07;7.53;;;3.72;;
72941;SDS011;61097;55.818;37.312;2023-04-24T12:43:34;6.55;;;3.30;;
72941;SDS011;61097;55.818;37.312;2023-04-24T12:46:00;6.88;;;3.50;;
72941;SDS011;61097;55.818;37.312;2023-04-24T12:48:26;5.93;;;3.35;;
72941;SDS011;61097;55.818;37.312;2023-04-24T12:50:53;6.00;;;3.22;;
72941;SDS011;61097;55.818;37.312;2023-04-24T12:53:18;8.18;;;3.60;;
72941;SDS011;61097;55.818;37.312;2023-04-24T12:55:44;6.75;;;3.45;;
72941;SDS011;61097;55.818;37.312;2023-04-24T12:58:12;6.13;;;3.42;;
72941;SDS011;61097;55.818;37.312;2023-04-24T13:00:38;7.25;;;3.60;;
72941;SDS011;61097;55.818;37.312;2023-04-24T13:03:04;9.43;;;3.53;;
72941;SDS011;61097;55.818;37.312;2023-04-24T13:05:30;7.75;;;3.60;;
72941;SDS011;61097;55.818;37.312;2023-04-24T13:07:56;8.52;;;3.38;;
72941;SDS011;61097;55.818;37.312;2023-04-24T13:10:22;7.38;;;3.67;;
72941;SDS011;61097;55.818;37.312;2023-04-24T13:12:48;7.13;;;3.72;;
72941;SDS011;61097;55.818;37.312;2023-04-24T13:15:14;6.55;;;3.92;;
72941;SDS011;61097;55.818;37.312;2023-04-24T13:17:39;7.40;;;3.33;;
72941;SDS011;61097;55.818;37.312;2023-04-24T13:20:05;7.90;;;3.42;;
72941;SDS011;61097;55.818;37.312;2023-04-24T13:22:31;6.32;;;3.15;;
72941;SDS011;61097;55.818;37.312;2023-04-24T13:24:57;7.50;;;3.35;;
72941;SDS011;61097;55.818;37.312;2023-04-24T13:27:22;6.93;;;3.20;;
72941;SDS011;61097;55.818;37.312;2023-04-24T13:29:48;6.85;;;3.58;;
72941;SDS011;61097;55.818;37.312;2023-04-24T13:32:14;8.50;;;3.47;;
72941;SDS011;61097;55.818;37.312;2023-04-24T13:34:39;8.85;;;3.33;;
72941;SDS011;61097;55.818;37.312;2023-04-24T13:37:05;8.15;;;3.38;;
72941;SDS011;61097;55.818;37.312;2023-04-24T13:39:31;6.00;;;3.45;;
72941;SDS011;61097;55.818;37.312;2023-04-24T13:41:57;6.72;;;3.20;;
72941;SDS011;61097;55.818;37.312;2023-04-24T13:44:23;6.32;;;3.60;;
72941;SDS011;61097;55.818;37.312;2023-04-24T13:46:50;15.77;;;4.50;;
72941;SDS011;61097;55.818;37.312;2023-04-24T13:49:19;8.18;;;3.70;;
72941;SDS011;61097;55.818;37.312;2023-04-24T13:51:46;6.97;;;3.38;;
72941;SDS011;61097;55.818;37.312;2023-04-24T13:54:12;8.10;;;3.75;;
72941;SDS011;61097;55.818;37.312;2023-04-24T13:56:38;7.22;;;4.20;;
72941;SDS011;61097;55.818;37.312;2023-04-24T13:59:04;8.50;;;4.28;;
72941;SDS011;61097;55.818;37.312;2023-04-24T14:01:30;9.60;;;4.00;;
72941;SDS011;61097;55.818;37.312;2023-04-24T14:03:56;9.00;;;3.95;;
72941;SDS011;61097;55.818;37.312;2023-04-24T14:06:22;7.75;;;3.80;;
72941;SDS011;61097;55.818;37.312;2023-04-24T14:08:48;10.07;;;3.95;;
72941;SDS011;61097;55.818;37.312;2023-04-24T14:11:14;7.85;;;3.88;;
72941;SDS011;61097;55.818;37.312;2023-04-24T14:13:40;11.07;;;4.55;;
72941;SDS011;61097;55.818;37.312;2023-04-24T14:16:07;10.52;;;3.80;;
72941;SDS011;61097;55.818;37.312;2023-04-24T14:18:33;8.05;;;3.50;;
72941;SDS011;61097;55.818;37.312;2023-04-24T14:20:59;9.10;;;4.03;;
72941;SDS011;61097;55.818;37.312;2023-04-24T14:23:26;9.93;;;3.80;;
72941;SDS011;61097;55.818;37.312;2023-04-24T14:25:52;9.10;;;3.75;;
72941;SDS011;61097;55.818;37.312;2023-04-24T14:28:18;8.52;;;3.45;;
72941;SDS011;61097;55.818;37.312;2023-04-24T14:30:45;8.35;;;3.55;;
72941;SDS011;61097;55.818;37.312;2023-04-24T14:33:11;6.85;;;4.05;;
72941;SDS011;61097;55.818;37.312;2023-04-24T14:35:38;8.25;;;3.47;;
72941;SDS011;61097;55.818;37.312;2023-04-24T14:38:05;7.75;;;3.60;;
72941;SDS011;61097;55.818;37.312;2023-04-24T14:40:30;6.90;;;3.25;;
72941;SDS011;61097;55.818;37.312;2023-04-24T14:42:57;6.75;;;3.58;;
72941;SDS011;61097;55.818;37.312;2023-04-24T14:45:24;6.45;;;3.50;;
72941;SDS011;61097;55.818;37.312;2023-04-24T14:47:50;7.00;;;3.85;;